sensor_id;sensor_type;location;lat;lon;timestamp;temperature;humidity
63283;DHT22;49407;51.388;0.048;2022-10-01T00:01:12;14.30;99.90
63283;DHT22;49407;51.388;0.048;2022-10-01T00:03:39;14.30;99.90
63283;DHT22;49407;51.388;0.048;2022-10-01T00:06:12;14.30;99.90
63283;DHT22;49407;51.388;0.048;2022-10-01T00:08:41;14.30;99.90
63283;DHT22;49407;51.388;0.048;2022-10-01T00:11:11;14.30;99.90
63283;DHT22;49407;51.388;0.048;2022-10-01T00:13:39;14.30;99.90
63283;DHT22;49407;51.388;0.048;2022-10-01T00:16:08;14.30;99.90
63283;DHT22;49407;51.388;0.048;2022-10-01T00:18:37;14.20;99.90
63283;DHT22;49407;51.388;0.048;2022-10-01T00:21:12;14.30;99.90
63283;DHT22;49407;51.388;0.048;2022-10-01T00:23:39;14.30;99.90
63283;DHT22;49407;51.388;0.048;2022-10-01T00:26:14;14.20;99.90
63283;DHT22;49407;51.388;0.048;2022-10-01T00:28:44;14.20;99.90
63283;DHT22;49407;51.388;0.048;2022-10-01T00:31:13;14.20;99.90
63283;DHT22;49407;51.388;0.048;2022-10-01T00:33:41;14.20;99.90
63283;DHT22;49407;51.388;0.048;2022-10-01T00:36:09;14.20;99.90
63283;DHT22;49407;51.388;0.048;2022-10-01T00:38:37;14.20;99.90
63283;DHT22;49407;51.388;0.048;2022-10-01T00:41:07;14.20;99.90
63283;DHT22;49407;51.388;0.048;2022-10-01T00:43:36;14.10;99.90
63283;DHT22;49407;51.388;0.048;2022-10-01T00:48:59;14.10;99.90
63283;DHT22;49407;51.388;0.048;2022-10-01T00:51:30;14.10;99.90
63283;DHT22;49407;51.388;0.048;2022-10-01T00:54:05;14.10;99.90
63283;DHT22;49407;51.388;0.048;2022-10-01T00:56:35;14.10;99.90
63283;DHT22;49407;51.388;0.048;2022-10-01T00:59:03;14.10;99.90
63283;DHT22;49407;51.388;0.048;2022-10-01T01:04:38;14.10;99.90
63283;DHT22;49407;51.388;0.048;2022-10-01T01:07:06;14.00;99.90
63283;DHT22;49407;51.388;0.048;2022-10-01T01:09:54;14.00;99.90
63283;DHT22;49407;51.388;0.048;2022-10-01T01:15:29;14.00;99.90
63283;DHT22;49407;51.388;0.048;2022-10-01T01:18:21;13.90;99.90
63283;DHT22;49407;51.388;0.048;2022-10-01T01:33:05;13.90;99.90
63283;DHT22;49407;51.388;0.048;2022-10-01T01:38:16;13.80;99.90
63283;DHT22;49407;51.388;0.048;2022-10-01T01:40:46;13.80;99.90
63283;DHT22;49407;51.388;0.048;2022-10-01T01:43:21;13.80;99.90
63283;DHT22;49407;51.388;0.048;2022-10-01T01:45:51;13.80;99.90
63283;DHT22;49407;51.388;0.048;2022-10-01T01:48:22;13.80;99.90
63283;DHT22;49407;51.388;0.048;2022-10-01T01:53:35;13.70;99.90
63283;DHT22;49407;51.388;0.048;2022-10-01T01:56:02;13.70;99.90
63283;DHT22;49407;51.388;0.048;2022-10-01T01:58:32;13.70;99.90
63283;DHT22;49407;51.388;0.048;2022-10-01T02:01:01;13.70;99.90
63283;DHT22;49407;51.388;0.048;2022-10-01T02:03:28;13.70;99.90
63283;DHT22;49407;51.388;0.048;2022-10-01T02:06:14;13.70;99.90
63283;DHT22;49407;51.388;0.048;2022-10-01T02:08:50;13.70;99.90
63283;DHT22;49407;51.388;0.048;2022-10-01T02:11:28;13.60;99.90
63283;DHT22;49407;51.388;0.048;2022-10-01T02:22:43;13.50;99.90
63283;DHT22;49407;51.388;0.048;2022-10-01T02:25:15;13.50;99.90
63283;DHT22;49407;51.388;0.048;2022-10-01T02:27:49;13.50;99.90
63283;DHT22;49407;51.388;0.048;2022-10-01T02:30:19;13.50;99.90
63283;DHT22;49407;51.388;0.048;2022-10-01T02:32:48;13.40;99.90
63283;DHT22;49407;51.388;0.048;2022-10-01T02:35:17;13.50;99.90
63283;DHT22;49407;51.388;0.048;2022-10-01T02:37:47;13.40;99.90
63283;DHT22;49407;51.388;0.048;2022-10-01T02:40:19;13.40;99.90
63283;DHT22;49407;51.388;0.048;2022-10-01T02:42:51;13.40;99.90
63283;DHT22;49407;51.388;0.048;2022-10-01T02:45:22;13.40;99.90
63283;DHT22;49407;51.388;0.048;2022-10-01T02:47:53;13.30;99.90
63283;DHT22;49407;51.388;0.048;2022-10-01T02:53:33;13.20;99.90
63283;DHT22;49407;51.388;0.048;2022-10-01T02:56:02;13.20;99.90
63283;DHT22;49407;51.388;0.048;2022-10-01T02:58:30;13.10;99.90
63283;DHT22;49407;51.388;0.048;2022-10-01T03:00:58;13.10;99.90
63283;DHT22;49407;51.388;0.048;2022-10-01T03:03:25;13.00;99.90
63283;DHT22;49407;51.388;0.048;2022-10-01T03:05:52;13.00;99.90
63283;DHT22;49407;51.388;0.048;2022-10-01T03:08:19;13.00;99.90
63283;DHT22;49407;51.388;0.048;2022-10-01T03:10:47;12.90;99.90
63283;DHT22;49407;51.388;0.048;2022-10-01T03:13:16;12.90;99.90
63283;DHT22;49407;51.388;0.048;2022-10-01T03:15:45;12.90;99.90
63283;DHT22;49407;51.388;0.048;2022-10-01T03:18:13;12.90;99.90
63283;DHT22;49407;51.388;0.048;2022-10-01T03:20:43;12.80;99.90
63283;DHT22;49407;51.388;0.048;2022-10-01T03:23:13;12.80;99.90
63283;DHT22;49407;51.388;0.048;2022-10-01T03:25:39;12.70;99.90
63283;DHT22;49407;51.388;0.048;2022-10-01T03:28:06;12.70;99.90
63283;DHT22;49407;51.388;0.048;2022-10-01T03:30:36;12.70;99.90
63283;DHT22;49407;51.388;0.048;2022-10-01T03:33:02;12.70;99.90
63283;DHT22;49407;51.388;0.048;2022-10-01T03:35:29;12.70;99.90
63283;DHT22;49407;51.388;0.048;2022-10-01T03:37:57;12.60;99.90
63283;DHT22;49407;51.388;0.048;2022-10-01T03:40:25;12.60;99.90
63283;DHT22;49407;51.388;0.048;2022-10-01T03:42:52;12.60;99.90
63283;DHT22;49407;51.388;0.048;2022-10-01T03:45:19;12.60;99.90
63283;DHT22;49407;51.388;0.048;2022-10-01T03:47:52;12.60;99.90
63283;DHT22;49407;51.388;0.048;2022-10-01T03:50:19;12.60;99.90
63283;DHT22;49407;51.388;0.048;2022-10-01T03:52:47;12.60;99.90
63283;DHT22;49407;51.388;0.048;2022-10-01T03:55:16;12.60;99.90
63283;DHT22;49407;51.388;0.048;2022-10-01T03:57:43;12.60;99.90
63283;DHT22;49407;51.388;0.048;2022-10-01T04:00:10;12.50;99.90
63283;DHT22;49407;51.388;0.048;2022-10-01T04:02:39;12.60;99.90
63283;DHT22;49407;51.388;0.048;2022-10-01T04:05:06;12.60;99.90
63283;DHT22;49407;51.388;0.048;2022-10-01T04:07:34;12.60;99.90
63283;DHT22;49407;51.388;0.048;2022-10-01T04:10:01;12.50;99.90
63283;DHT22;49407;51.388;0.048;2022-10-01T04:12:28;12.50;99.90
63283;DHT22;49407;51.388;0.048;2022-10-01T04:14:55;12.50;99.90
63283;DHT22;49407;51.388;0.048;2022-10-01T04:17:22;12.50;99.90
63283;DHT22;49407;51.388;0.048;2022-10-01T04:19:51;12.40;99.90
63283;DHT22;49407;51.388;0.048;2022-10-01T04:22:18;12.40;99.90
63283;DHT22;49407;51.388;0.048;2022-10-01T04:24:45;12.30;99.90
63283;DHT22;49407;51.388;0.048;2022-10-01T04:27:12;12.30;99.90
63283;DHT22;49407;51.388;0.048;2022-10-01T04:32:44;12.30;99.90
63283;DHT22;49407;51.388;0.048;2022-10-01T04:35:10;12.30;99.90
63283;DHT22;49407;51.388;0.048;2022-10-01T04:37:38;12.20;99.90
63283;DHT22;49407;51.388;0.048;2022-10-01T04:40:05;12.20;99.90
63283;DHT22;49407;51.388;0.048;2022-10-01T04:42:32;12.20;99.90
63283;DHT22;49407;51.388;0.048;2022-10-01T04:44:59;12.10;99.90
63283;DHT22;49407;51.388;0.048;2022-10-01T04:47:26;12.10;99.90
63283;DHT22;49407;51.388;0.048;2022-10-01T04:49:53;12.00;99.90
63283;DHT22;49407;51.388;0.048;2022-10-01T04:52:20;12.00;99.90
63283;DHT22;49407;51.388;0.048;2022-10-01T04:54:47;12.00;99.90
63283;DHT22;49407;51.388;0.048;2022-10-01T04:57:13;12.00;99.90
63283;DHT22;49407;51.388;0.048;2022-10-01T04:59:42;12.00;99.90
63283;DHT22;49407;51.388;0.048;2022-10-01T05:02:09;12.00;99.90
63283;DHT22;49407;51.388;0.048;2022-10-01T05:04:36;12.00;99.90
63283;DHT22;49407;51.388;0.048;2022-10-01T05:07:02;12.00;99.90
63283;DHT22;49407;51.388;0.048;2022-10-01T05:09:31;12.00;99.90
63283;DHT22;49407;51.388;0.048;2022-10-01T05:11:58;11.90;99.90
63283;DHT22;49407;51.388;0.048;2022-10-01T05:14:25;11.90;99.90
63283;DHT22;49407;51.388;0.048;2022-10-01T05:16:52;11.90;99.90
63283;DHT22;49407;51.388;0.048;2022-10-01T05:19:23;11.90;99.90
63283;DHT22;49407;51.388;0.048;2022-10-01T05:21:54;12.00;99.90
63283;DHT22;49407;51.388;0.048;2022-10-01T05:24:21;11.90;99.90
63283;DHT22;49407;51.388;0.048;2022-10-01T05:26:48;11.90;99.90
63283;DHT22;49407;51.388;0.048;2022-10-01T05:29:16;11.90;99.90
63283;DHT22;49407;51.388;0.048;2022-10-01T05:31:44;11.90;99.90
63283;DHT22;49407;51.388;0.048;2022-10-01T05:34:12;11.90;99.90
63283;DHT22;49407;51.388;0.048;2022-10-01T05:36:39;11.90;99.90
63283;DHT22;49407;51.388;0.048;2022-10-01T05:39:06;11.90;99.90
63283;DHT22;49407;51.388;0.048;2022-10-01T05:41:33;11.90;99.90
63283;DHT22;49407;51.388;0.048;2022-10-01T05:44:00;11.90;99.90
63283;DHT22;49407;51.388;0.048;2022-10-01T05:46:28;12.00;99.90
63283;DHT22;49407;51.388;0.048;2022-10-01T05:48:55;11.90;99.90
63283;DHT22;49407;51.388;0.048;2022-10-01T05:51:22;11.90;99.90
63283;DHT22;49407;51.388;0.048;2022-10-01T05:53:52;11.90;99.90
63283;DHT22;49407;51.388;0.048;2022-10-01T05:56:19;12.00;99.90
63283;DHT22;49407;51.388;0.048;2022-10-01T05:58:46;12.00;99.90
63283;DHT22;49407;51.388;0.048;2022-10-01T06:01:13;12.00;99.90
63283;DHT22;49407;51.388;0.048;2022-10-01T06:03:40;12.00;99.90
63283;DHT22;49407;51.388;0.048;2022-10-01T06:06:08;12.00;99.90
63283;DHT22;49407;51.388;0.048;2022-10-01T06:08:35;12.00;99.90
63283;DHT22;49407;51.388;0.048;2022-10-01T06:14:08;12.00;99.90
63283;DHT22;49407;51.388;0.048;2022-10-01T06:16:35;11.90;99.90
63283;DHT22;49407;51.388;0.048;2022-10-01T06:19:02;12.00;99.90
63283;DHT22;49407;51.388;0.048;2022-10-01T06:21:30;12.00;99.90
63283;DHT22;49407;51.388;0.048;2022-10-01T06:23:58;12.00;99.90
63283;DHT22;49407;51.388;0.048;2022-10-01T06:26:25;12.00;99.90
63283;DHT22;49407;51.388;0.048;2022-10-01T06:28:53;11.90;99.90
63283;DHT22;49407;51.388;0.048;2022-10-01T06:31:22;11.90;99.90
63283;DHT22;49407;51.388;0.048;2022-10-01T06:33:49;11.90;99.90
63283;DHT22;49407;51.388;0.048;2022-10-01T06:36:16;11.90;99.90
63283;DHT22;49407;51.388;0.048;2022-10-01T06:38:42;11.90;99.90
63283;DHT22;49407;51.388;0.048;2022-10-01T06:41:15;12.00;99.90
63283;DHT22;49407;51.388;0.048;2022-10-01T06:43:41;12.00;99.90
63283;DHT22;49407;51.388;0.048;2022-10-01T06:46:09;12.00;99.90
63283;DHT22;49407;51.388;0.048;2022-10-01T06:48:36;12.00;99.90
63283;DHT22;49407;51.388;0.048;2022-10-01T06:51:04;12.10;99.90
63283;DHT22;49407;51.388;0.048;2022-10-01T06:53:31;12.10;99.90
63283;DHT22;49407;51.388;0.048;2022-10-01T06:56:04;12.10;99.90
63283;DHT22;49407;51.388;0.048;2022-10-01T06:58:32;12.20;99.90
63283;DHT22;49407;51.388;0.048;2022-10-01T07:01:01;12.20;99.90
63283;DHT22;49407;51.388;0.048;2022-10-01T07:03:29;12.30;99.90
63283;DHT22;49407;51.388;0.048;2022-10-01T07:06:04;12.30;99.90
63283;DHT22;49407;51.388;0.048;2022-10-01T07:08:31;12.30;99.90
63283;DHT22;49407;51.388;0.048;2022-10-01T07:14:08;12.40;99.90
63283;DHT22;49407;51.388;0.048;2022-10-01T07:16:37;12.50;99.90
63283;DHT22;49407;51.388;0.048;2022-10-01T07:19:04;12.60;99.90
63283;DHT22;49407;51.388;0.048;2022-10-01T07:21:31;12.60;99.90
63283;DHT22;49407;51.388;0.048;2022-10-01T07:23:59;12.70;99.90
63283;DHT22;49407;51.388;0.048;2022-10-01T07:26:25;12.80;99.90
63283;DHT22;49407;51.388;0.048;2022-10-01T07:28:52;12.80;99.90
63283;DHT22;49407;51.388;0.048;2022-10-01T07:31:21;12.90;99.90
63283;DHT22;49407;51.388;0.048;2022-10-01T07:33:55;13.00;99.90
63283;DHT22;49407;51.388;0.048;2022-10-01T07:36:23;13.00;99.90
63283;DHT22;49407;51.388;0.048;2022-10-01T07:38:50;13.10;99.90
63283;DHT22;49407;51.388;0.048;2022-10-01T07:41:18;13.20;99.90
63283;DHT22;49407;51.388;0.048;2022-10-01T07:43:45;13.20;99.90
63283;DHT22;49407;51.388;0.048;2022-10-01T07:46:12;13.30;99.90
63283;DHT22;49407;51.388;0.048;2022-10-01T07:48:39;13.40;99.90
63283;DHT22;49407;51.388;0.048;2022-10-01T07:51:07;13.40;99.90
63283;DHT22;49407;51.388;0.048;2022-10-01T07:53:34;13.50;99.90
63283;DHT22;49407;51.388;0.048;2022-10-01T07:56:01;13.60;99.90
63283;DHT22;49407;51.388;0.048;2022-10-01T07:58:28;13.60;99.90
63283;DHT22;49407;51.388;0.048;2022-10-01T08:00:57;13.70;99.90
63283;DHT22;49407;51.388;0.048;2022-10-01T08:03:24;13.70;99.90
63283;DHT22;49407;51.388;0.048;2022-10-01T08:05:51;13.80;99.90
63283;DHT22;49407;51.388;0.048;2022-10-01T08:08:19;13.80;99.90
63283;DHT22;49407;51.388;0.048;2022-10-01T08:10:46;14.00;99.90
63283;DHT22;49407;51.388;0.048;2022-10-01T08:13:16;14.00;99.90
63283;DHT22;49407;51.388;0.048;2022-10-01T08:15:47;14.10;99.90
63283;DHT22;49407;51.388;0.048;2022-10-01T08:18:20;14.20;99.90
63283;DHT22;49407;51.388;0.048;2022-10-01T08:20:47;14.20;99.90
63283;DHT22;49407;51.388;0.048;2022-10-01T08:23:15;14.30;99.90
63283;DHT22;49407;51.388;0.048;2022-10-01T08:25:43;14.30;99.90
63283;DHT22;49407;51.388;0.048;2022-10-01T08:28:10;14.40;99.90
63283;DHT22;49407;51.388;0.048;2022-10-01T08:30:39;14.40;99.90
63283;DHT22;49407;51.388;0.048;2022-10-01T08:33:09;14.50;99.90
63283;DHT22;49407;51.388;0.048;2022-10-01T08:35:40;14.60;99.90
63283;DHT22;49407;51.388;0.048;2022-10-01T08:38:09;14.70;99.90
63283;DHT22;49407;51.388;0.048;2022-10-01T08:40:44;14.80;99.90
63283;DHT22;49407;51.388;0.048;2022-10-01T08:43:31;15.00;99.90
63283;DHT22;49407;51.388;0.048;2022-10-01T08:46:11;15.20;99.90
63283;DHT22;49407;51.388;0.048;2022-10-01T08:54:41;15.20;99.90
63283;DHT22;49407;51.388;0.048;2022-10-01T08:57:15;15.20;99.90
63283;DHT22;49407;51.388;0.048;2022-10-01T08:59:58;15.30;99.90
63283;DHT22;49407;51.388;0.048;2022-10-01T09:02:32;15.40;99.90
63283;DHT22;49407;51.388;0.048;2022-10-01T09:05:01;15.60;99.90
63283;DHT22;49407;51.388;0.048;2022-10-01T09:07:42;15.70;99.90
63283;DHT22;49407;51.388;0.048;2022-10-01T09:26:48;16.10;99.90
63283;DHT22;49407;51.388;0.048;2022-10-01T09:29:31;16.20;99.90
63283;DHT22;49407;51.388;0.048;2022-10-01T09:32:02;16.40;99.90
63283;DHT22;49407;51.388;0.048;2022-10-01T09:34:38;16.50;99.90
63283;DHT22;49407;51.388;0.048;2022-10-01T09:40:20;16.60;99.90
63283;DHT22;49407;51.388;0.048;2022-10-01T09:42:50;16.80;99.90
63283;DHT22;49407;51.388;0.048;2022-10-01T09:45:21;17.00;99.90
63283;DHT22;49407;51.388;0.048;2022-10-01T09:47:51;17.20;99.90
63283;DHT22;49407;51.388;0.048;2022-10-01T09:50:36;17.40;99.90
63283;DHT22;49407;51.388;0.048;2022-10-01T09:53:05;17.40;99.90
63283;DHT22;49407;51.388;0.048;2022-10-01T09:55:42;17.40;99.90
63283;DHT22;49407;51.388;0.048;2022-10-01T09:58:21;17.20;99.90
63283;DHT22;49407;51.388;0.048;2022-10-01T10:00:50;16.90;99.90
63283;DHT22;49407;51.388;0.048;2022-10-01T10:03:23;17.00;99.90
63283;DHT22;49407;51.388;0.048;2022-10-01T10:05:51;17.80;99.90
63283;DHT22;49407;51.388;0.048;2022-10-01T10:08:26;18.40;99.90
63283;DHT22;49407;51.388;0.048;2022-10-01T10:11:05;18.70;99.90
63283;DHT22;49407;51.388;0.048;2022-10-01T10:13:47;19.50;99.90
63283;DHT22;49407;51.388;0.048;2022-10-01T10:19:04;19.60;99.90
63283;DHT22;49407;51.388;0.048;2022-10-01T10:21:35;19.50;99.90
63283;DHT22;49407;51.388;0.048;2022-10-01T10:24:05;19.90;99.90
63283;DHT22;49407;51.388;0.048;2022-10-01T10:26:35;20.90;99.90
63283;DHT22;49407;51.388;0.048;2022-10-01T10:29:11;21.90;99.90
63283;DHT22;49407;51.388;0.048;2022-10-01T10:31:53;22.70;99.90
63283;DHT22;49407;51.388;0.048;2022-10-01T10:34:31;23.50;99.90
63283;DHT22;49407;51.388;0.048;2022-10-01T10:37:02;23.90;99.90
63283;DHT22;49407;51.388;0.048;2022-10-01T10:39:36;24.50;99.80
63283;DHT22;49407;51.388;0.048;2022-10-01T10:42:04;24.30;98.60
63283;DHT22;49407;51.388;0.048;2022-10-01T10:44:38;24.10;97.50
63283;DHT22;49407;51.388;0.048;2022-10-01T10:47:13;24.00;97.30
63283;DHT22;49407;51.388;0.048;2022-10-01T10:49:48;24.20;97.40
63283;DHT22;49407;51.388;0.048;2022-10-01T10:52:19;24.60;96.60
63283;DHT22;49407;51.388;0.048;2022-10-01T10:54:49;25.00;94.90
63283;DHT22;49407;51.388;0.048;2022-10-01T10:57:32;25.50;93.80
63283;DHT22;49407;51.388;0.048;2022-10-01T11:02:33;26.30;91.70
63283;DHT22;49407;51.388;0.048;2022-10-01T11:05:16;26.30;90.90
63283;DHT22;49407;51.388;0.048;2022-10-01T11:08:18;26.40;89.70
63283;DHT22;49407;51.388;0.048;2022-10-01T11:11:04;26.70;87.60
63283;DHT22;49407;51.388;0.048;2022-10-01T11:41:26;26.90;78.80
63283;DHT22;49407;51.388;0.048;2022-10-01T11:44:20;26.30;75.30
63283;DHT22;49407;51.388;0.048;2022-10-01T11:46:58;25.60;78.40
63283;DHT22;49407;51.388;0.048;2022-10-01T11:49:39;24.70;79.30
63283;DHT22;49407;51.388;0.048;2022-10-01T11:55:19;23.30;85.20
63283;DHT22;49407;51.388;0.048;2022-10-01T12:04:46;23.20;82.10
63283;DHT22;49407;51.388;0.048;2022-10-01T12:10:13;22.60;82.30
63283;DHT22;49407;51.388;0.048;2022-10-01T12:13:09;22.10;80.30
63283;DHT22;49407;51.388;0.048;2022-10-01T12:18:35;21.30;84.70
63283;DHT22;49407;51.388;0.048;2022-10-01T12:21:06;21.00;88.20
63283;DHT22;49407;51.388;0.048;2022-10-01T12:23:44;20.90;86.70
63283;DHT22;49407;51.388;0.048;2022-10-01T12:26:17;20.80;88.30
63283;DHT22;49407;51.388;0.048;2022-10-01T12:34:48;24.30;85.50
63283;DHT22;49407;51.388;0.048;2022-10-01T12:37:57;25.20;78.60
63283;DHT22;49407;51.388;0.048;2022-10-01T12:40:49;25.10;76.00
63283;DHT22;49407;51.388;0.048;2022-10-01T12:48:54;23.40;76.80
63283;DHT22;49407;51.388;0.048;2022-10-01T12:51:46;23.10;78.00
63283;DHT22;49407;51.388;0.048;2022-10-01T12:57:17;24.10;76.00
63283;DHT22;49407;51.388;0.048;2022-10-01T13:03:02;23.60;74.60
63283;DHT22;49407;51.388;0.048;2022-10-01T13:13:57;22.90;76.70
63283;DHT22;49407;51.388;0.048;2022-10-01T13:16:40;22.80;79.50
63283;DHT22;49407;51.388;0.048;2022-10-01T13:19:26;22.60;75.20
63283;DHT22;49407;51.388;0.048;2022-10-01T13:22:15;22.10;73.20
63283;DHT22;49407;51.388;0.048;2022-10-01T13:27:55;21.30;77.70
63283;DHT22;49407;51.388;0.048;2022-10-01T13:30:26;20.90;80.50
63283;DHT22;49407;51.388;0.048;2022-10-01T13:32:59;20.80;80.40
63283;DHT22;49407;51.388;0.048;2022-10-01T13:35:34;20.60;83.10
63283;DHT22;49407;51.388;0.048;2022-10-01T13:38:41;20.60;84.00
63283;DHT22;49407;51.388;0.048;2022-10-01T13:41:21;20.60;81.40
63283;DHT22;49407;51.388;0.048;2022-10-01T13:46:30;20.80;81.80
63283;DHT22;49407;51.388;0.048;2022-10-01T13:49:06;21.20;82.90
63283;DHT22;49407;51.388;0.048;2022-10-01T13:51:44;21.70;83.80
63283;DHT22;49407;51.388;0.048;2022-10-01T13:54:24;22.10;83.80
63283;DHT22;49407;51.388;0.048;2022-10-01T13:56:53;22.20;78.80
63283;DHT22;49407;51.388;0.048;2022-10-01T14:01:53;21.70;80.50
63283;DHT22;49407;51.388;0.048;2022-10-01T14:07:20;21.30;83.40
63283;DHT22;49407;51.388;0.048;2022-10-01T14:09:53;21.10;84.70
63283;DHT22;49407;51.388;0.048;2022-10-01T14:12:28;21.10;86.80
63283;DHT22;49407;51.388;0.048;2022-10-01T14:15:20;21.20;86.60
63283;DHT22;49407;51.388;0.048;2022-10-01T14:18:27;21.10;85.30
63283;DHT22;49407;51.388;0.048;2022-10-01T14:30:06;21.40;82.40
63283;DHT22;49407;51.388;0.048;2022-10-01T14:38:03;21.20;82.30
63283;DHT22;49407;51.388;0.048;2022-10-01T14:40:38;21.10;83.50
63283;DHT22;49407;51.388;0.048;2022-10-01T14:43:22;21.00;81.30
63283;DHT22;49407;51.388;0.048;2022-10-01T14:45:59;20.60;82.10
63283;DHT22;49407;51.388;0.048;2022-10-01T14:48:29;20.30;84.00
63283;DHT22;49407;51.388;0.048;2022-10-01T14:51:00;20.20;87.30
63283;DHT22;49407;51.388;0.048;2022-10-01T14:53:31;20.50;88.70
63283;DHT22;49407;51.388;0.048;2022-10-01T14:56:04;21.00;85.10
63283;DHT22;49407;51.388;0.048;2022-10-01T14:58:37;21.30;83.90
63283;DHT22;49407;51.388;0.048;2022-10-01T15:01:05;21.50;81.90
63283;DHT22;49407;51.388;0.048;2022-10-01T15:03:37;21.60;80.60
63283;DHT22;49407;51.388;0.048;2022-10-01T15:06:11;21.50;81.70
63283;DHT22;49407;51.388;0.048;2022-10-01T15:08:44;21.80;81.00
63283;DHT22;49407;51.388;0.048;2022-10-01T15:13:45;21.90;79.60
63283;DHT22;49407;51.388;0.048;2022-10-01T15:16:16;21.80;80.30
63283;DHT22;49407;51.388;0.048;2022-10-01T15:18:54;21.90;79.80
63283;DHT22;49407;51.388;0.048;2022-10-01T15:21:33;21.90;78.70
63283;DHT22;49407;51.388;0.048;2022-10-01T15:24:02;21.70;78.40
63283;DHT22;49407;51.388;0.048;2022-10-01T15:26:30;21.60;78.50
63283;DHT22;49407;51.388;0.048;2022-10-01T15:29:04;22.00;78.30
63283;DHT22;49407;51.388;0.048;2022-10-01T15:34:18;22.10;77.10
63283;DHT22;49407;51.388;0.048;2022-10-01T15:36:47;21.70;78.60
63283;DHT22;49407;51.388;0.048;2022-10-01T15:41:58;22.30;77.50
63283;DHT22;49407;51.388;0.048;2022-10-01T15:52:27;23.70;80.60
63283;DHT22;49407;51.388;0.048;2022-10-01T15:55:18;24.60;77.70
63283;DHT22;49407;51.388;0.048;2022-10-01T16:03:26;25.50;67.10
63283;DHT22;49407;51.388;0.048;2022-10-01T16:05:56;25.40;68.10
63283;DHT22;49407;51.388;0.048;2022-10-01T16:08:30;25.40;66.30
63283;DHT22;49407;51.388;0.048;2022-10-01T16:11:15;25.20;66.50
63283;DHT22;49407;51.388;0.048;2022-10-01T16:13:50;24.60;65.50
63283;DHT22;49407;51.388;0.048;2022-10-01T16:16:26;23.60;66.50
63283;DHT22;49407;51.388;0.048;2022-10-01T16:18:58;22.60;70.50
63283;DHT22;49407;51.388;0.048;2022-10-01T16:21:25;21.80;73.40
63283;DHT22;49407;51.388;0.048;2022-10-01T16:23:54;21.20;72.80
63283;DHT22;49407;51.388;0.048;2022-10-01T16:26:33;20.60;74.10
63283;DHT22;49407;51.388;0.048;2022-10-01T16:29:16;20.20;76.40
63283;DHT22;49407;51.388;0.048;2022-10-01T16:31:45;19.90;77.70
63283;DHT22;49407;51.388;0.048;2022-10-01T16:34:14;19.60;79.40
63283;DHT22;49407;51.388;0.048;2022-10-01T16:36:42;19.40;79.70
63283;DHT22;49407;51.388;0.048;2022-10-01T16:39:10;19.20;80.60
63283;DHT22;49407;51.388;0.048;2022-10-01T16:41:39;19.00;80.00
63283;DHT22;49407;51.388;0.048;2022-10-01T16:44:10;18.90;82.40
63283;DHT22;49407;51.388;0.048;2022-10-01T16:46:39;18.70;82.90
63283;DHT22;49407;51.388;0.048;2022-10-01T16:49:14;18.60;84.20
63283;DHT22;49407;51.388;0.048;2022-10-01T16:51:41;18.50;84.30
63283;DHT22;49407;51.388;0.048;2022-10-01T16:54:18;18.30;86.50
63283;DHT22;49407;51.388;0.048;2022-10-01T16:56:46;18.20;88.60
63283;DHT22;49407;51.388;0.048;2022-10-01T16:59:13;18.10;87.00
63283;DHT22;49407;51.388;0.048;2022-10-01T17:01:40;18.00;86.00
63283;DHT22;49407;51.388;0.048;2022-10-01T17:04:12;17.90;86.50
63283;DHT22;49407;51.388;0.048;2022-10-01T17:06:39;17.90;85.50
63283;DHT22;49407;51.388;0.048;2022-10-01T17:09:07;17.90;86.00
63283;DHT22;49407;51.388;0.048;2022-10-01T17:11:34;17.80;85.70
63283;DHT22;49407;51.388;0.048;2022-10-01T17:14:01;17.70;84.60
63283;DHT22;49407;51.388;0.048;2022-10-01T17:16:28;17.70;85.00
63283;DHT22;49407;51.388;0.048;2022-10-01T17:18:55;17.60;86.50
63283;DHT22;49407;51.388;0.048;2022-10-01T17:21:22;17.60;86.60
63283;DHT22;49407;51.388;0.048;2022-10-01T17:23:49;17.50;88.10
63283;DHT22;49407;51.388;0.048;2022-10-01T17:26:19;17.50;89.10
63283;DHT22;49407;51.388;0.048;2022-10-01T17:28:46;17.40;88.10
63283;DHT22;49407;51.388;0.048;2022-10-01T17:31:13;17.30;88.50
63283;DHT22;49407;51.388;0.048;2022-10-01T17:33:43;17.20;89.20
63283;DHT22;49407;51.388;0.048;2022-10-01T17:36:11;17.10;90.30
63283;DHT22;49407;51.388;0.048;2022-10-01T17:38:38;17.00;91.20
63283;DHT22;49407;51.388;0.048;2022-10-01T17:41:06;16.90;90.60
63283;DHT22;49407;51.388;0.048;2022-10-01T17:43:33;16.90;90.50
63283;DHT22;49407;51.388;0.048;2022-10-01T17:46:02;16.80;90.60
63283;DHT22;49407;51.388;0.048;2022-10-01T17:48:29;16.80;91.30
63283;DHT22;49407;51.388;0.048;2022-10-01T17:51:17;16.70;91.60
63283;DHT22;49407;51.388;0.048;2022-10-01T17:53:45;16.60;91.90
63283;DHT22;49407;51.388;0.048;2022-10-01T17:56:15;16.50;92.20
63283;DHT22;49407;51.388;0.048;2022-10-01T17:58:43;16.40;92.30
63283;DHT22;49407;51.388;0.048;2022-10-01T18:01:16;16.40;92.60
63283;DHT22;49407;51.388;0.048;2022-10-01T18:03:45;16.30;92.70
63283;DHT22;49407;51.388;0.048;2022-10-01T18:06:12;16.20;92.70
63283;DHT22;49407;51.388;0.048;2022-10-01T18:08:42;16.20;92.90
63283;DHT22;49407;51.388;0.048;2022-10-01T18:11:30;16.20;93.50
63283;DHT22;49407;51.388;0.048;2022-10-01T18:13:57;16.20;93.40
63283;DHT22;49407;51.388;0.048;2022-10-01T18:16:24;16.10;93.90
63283;DHT22;49407;51.388;0.048;2022-10-01T18:18:59;16.10;94.30
63283;DHT22;49407;51.388;0.048;2022-10-01T18:21:47;16.00;94.40
63283;DHT22;49407;51.388;0.048;2022-10-01T18:24:14;15.90;94.20
63283;DHT22;49407;51.388;0.048;2022-10-01T18:26:42;15.90;94.90
63283;DHT22;49407;51.388;0.048;2022-10-01T18:29:25;15.80;95.20
63283;DHT22;49407;51.388;0.048;2022-10-01T18:31:58;15.70;94.90
63283;DHT22;49407;51.388;0.048;2022-10-01T18:34:35;15.60;95.40
63283;DHT22;49407;51.388;0.048;2022-10-01T18:39:53;15.60;95.40
63283;DHT22;49407;51.388;0.048;2022-10-01T18:42:43;15.60;96.10
63283;DHT22;49407;51.388;0.048;2022-10-01T18:49:06;15.50;96.40
63283;DHT22;49407;51.388;0.048;2022-10-01T18:56:36;15.30;98.10
63283;DHT22;49407;51.388;0.048;2022-10-01T19:02:09;15.30;98.70
63283;DHT22;49407;51.388;0.048;2022-10-01T19:12:44;15.30;98.90
63283;DHT22;49407;51.388;0.048;2022-10-01T19:18:23;15.40;99.00
63283;DHT22;49407;51.388;0.048;2022-10-01T19:26:32;15.40;99.90
63283;DHT22;49407;51.388;0.048;2022-10-01T19:32:00;15.40;99.90
63283;DHT22;49407;51.388;0.048;2022-10-01T19:34:54;15.30;99.90
63283;DHT22;49407;51.388;0.048;2022-10-01T19:37:30;15.30;99.90
63283;DHT22;49407;51.388;0.048;2022-10-01T19:40:30;15.30;99.90
63283;DHT22;49407;51.388;0.048;2022-10-01T19:43:06;15.30;99.90
63283;DHT22;49407;51.388;0.048;2022-10-01T19:48:48;15.30;99.90
63283;DHT22;49407;51.388;0.048;2022-10-01T19:54:31;15.30;99.90